sensor_id;sensor_type;location;lat;lon;timestamp;pressure;altitude;pressure_sealevel;temperature;humidity
31771;BME280;18343;50.152;8.182;2023-11-21T00:01:53;96710.81;;;9.56;100.00
31771;BME280;18343;50.152;8.182;2023-11-21T00:04:39;96715.97;;;9.57;100.00
31771;BME280;18343;50.152;8.182;2023-11-21T00:07:24;96710.59;;;9.57;100.00
31771;BME280;18343;50.152;8.182;2023-11-21T00:10:09;96718.03;;;9.62;100.00
31771;BME280;18343;50.152;8.182;2023-11-21T00:12:54;96711.22;;;9.66;100.00
31771;BME280;18343;50.152;8.182;2023-11-21T00:15:39;96720.09;;;9.66;100.00
31771;BME280;18343;50.152;8.182;2023-11-21T00:18:23;96718.25;;;9.67;100.00
31771;BME280;18343;50.152;8.182;2023-11-21T00:21:17;96716.38;;;9.67;100.00
31771;BME280;18343;50.152;8.182;2023-11-21T00:24:02;96708.75;;;9.64;100.00
31771;BME280;18343;50.152;8.182;2023-11-21T00:26:46;96718.66;;;9.64;100.00
31771;BME280;18343;50.152;8.182;2023-11-21T00:29:31;96720.09;;;9.60;100.00
31771;BME280;18343;50.152;8.182;2023-11-21T00:32:16;96719.88;;;9.61;100.00
31771;BME280;18343;50.152;8.182;2023-11-21T00:35:00;96726.91;;;9.62;100.00
31771;BME280;18343;50.152;8.182;2023-11-21T00:37:46;96725.88;;;9.63;100.00
31771;BME280;18343;50.152;8.182;2023-11-21T00:40:31;96724.03;;;9.64;100.00
31771;BME280;18343;50.152;8.182;2023-11-21T00:43:15;96726.50;;;9.65;100.00
31771;BME280;18343;50.152;8.182;2023-11-21T00:46:04;96722.59;;;9.68;100.00
31771;BME280;18343;50.152;8.182;2023-11-21T00:48:48;96730.41;;;9.63;100.00
31771;BME280;18343;50.152;8.182;2023-11-21T00:51:33;96726.91;;;9.62;100.00
31771;BME280;18343;50.152;8.182;2023-11-21T00:54:19;96726.47;;;9.59;100.00
31771;BME280;18343;50.152;8.182;2023-11-21T00:57:07;96718.88;;;9.56;100.00
31771;BME280;18343;50.152;8.182;2023-11-21T00:59:51;96721.34;;;9.57;100.00
31771;BME280;18343;50.152;8.182;2023-11-21T01:02:36;96728.13;;;9.60;100.00
31771;BME280;18343;50.152;8.182;2023-11-21T01:05:21;96723.59;;;9.60;100.00
31771;BME280;18343;50.152;8.182;2023-11-21T01:08:06;96728.56;;;9.63;100.00
31771;BME280;18343;50.152;8.182;2023-11-21T01:10:52;96738.28;;;9.64;100.00
31771;BME280;18343;50.152;8.182;2023-11-21T01:13:36;96743.22;;;9.61;100.00
31771;BME280;18343;50.152;8.182;2023-11-21T01:16:21;96744.44;;;9.58;100.00
31771;BME280;18343;50.152;8.182;2023-11-21T01:19:06;96744.69;;;9.57;100.00
31771;BME280;18343;50.152;8.182;2023-11-21T01:21:51;96743.22;;;9.54;100.00
31771;BME280;18343;50.152;8.182;2023-11-21T01:24:36;96743.03;;;9.56;100.00
31771;BME280;18343;50.152;8.182;2023-11-21T01:27:22;96751.47;;;9.59;100.00
31771;BME280;18343;50.152;8.182;2023-11-21T01:30:08;96752.72;;;9.63;100.00
31771;BME280;18343;50.152;8.182;2023-11-21T01:32:53;96750.88;;;9.64;100.00
31771;BME280;18343;50.152;8.182;2023-11-21T01:35:38;96754.78;;;9.61;100.00
31771;BME280;18343;50.152;8.182;2023-11-21T01:38:23;96752.28;;;9.60;100.00
31771;BME280;18343;50.152;8.182;2023-11-21T01:41:07;96761.19;;;9.60;100.00
31771;BME280;18343;50.152;8.182;2023-11-21T01:43:53;96763.66;;;9.62;100.00
31771;BME280;18343;50.152;8.182;2023-11-21T01:46:38;96764.50;;;9.56;100.00
31771;BME280;18343;50.152;8.182;2023-11-21T01:49:23;96762.00;;;9.54;100.00
31771;BME280;18343;50.152;8.182;2023-11-21T01:52:08;96761.19;;;9.54;100.00
31771;BME280;18343;50.152;8.182;2023-11-21T01:54:52;96767.38;;;9.54;100.00
31771;BME280;18343;50.152;8.182;2023-11-21T01:57:37;96773.56;;;9.55;100.00
31771;BME280;18343;50.152;8.182;2023-11-21T02:00:23;96774.41;;;9.55;100.00
31771;BME280;18343;50.152;8.182;2023-11-21T02:03:08;96773.16;;;9.51;100.00
31771;BME280;18343;50.152;8.182;2023-11-21T02:05:52;96775.00;;;9.50;100.00
31771;BME280;18343;50.152;8.182;2023-11-21T02:08:40;96779.97;;;9.54;100.00
31771;BME280;18343;50.152;8.182;2023-11-21T02:11:25;96774.59;;;9.54;100.00
31771;BME280;18343;50.152;8.182;2023-11-21T02:14:10;96779.97;;;9.54;100.00
31771;BME280;18343;50.152;8.182;2023-11-21T02:16:56;96775.22;;;9.56;100.00
31771;BME280;18343;50.152;8.182;2023-11-21T02:19:41;96775.44;;;9.54;100.00
31771;BME280;18343;50.152;8.182;2023-11-21T02:22:28;96783.47;;;9.54;100.00
31771;BME280;18343;50.152;8.182;2023-11-21T02:25:16;96776.25;;;9.55;100.00
31771;BME280;18343;50.152;8.182;2023-11-21T02:28:02;96776.66;;;9.52;100.00
31771;BME280;18343;50.152;8.182;2023-11-21T02:30:46;96769.84;;;9.49;100.00
31771;BME280;18343;50.152;8.182;2023-11-21T02:33:31;96776.44;;;9.46;100.00
31771;BME280;18343;50.152;8.182;2023-11-21T02:36:16;96776.41;;;9.40;100.00
31771;BME280;18343;50.152;8.182;2023-11-21T02:39:01;96777.63;;;9.37;100.00
31771;BME280;18343;50.152;8.182;2023-11-21T02:41:47;96786.91;;;9.35;100.00
31771;BME280;18343;50.152;8.182;2023-11-21T02:44:31;96780.91;;;9.33;100.00
31771;BME280;18343;50.152;8.182;2023-11-21T02:47:16;96781.94;;;9.32;100.00
31771;BME280;18343;50.152;8.182;2023-11-21T02:50:00;96782.97;;;9.31;100.00
31771;BME280;18343;50.152;8.182;2023-11-21T02:52:45;96787.72;;;9.29;100.00
31771;BME280;18343;50.152;8.182;2023-11-21T02:55:29;96781.75;;;9.27;100.00
31771;BME280;18343;50.152;8.182;2023-11-21T02:58:15;96789.78;;;9.27;100.00
31771;BME280;18343;50.152;8.182;2023-11-21T03:01:00;96792.66;;;9.25;100.00
31771;BME280;18343;50.152;8.182;2023-11-21T03:03:44;96793.50;;;9.26;100.00
31771;BME280;18343;50.152;8.182;2023-11-21T03:06:29;96796.56;;;9.23;100.00
31771;BME280;18343;50.152;8.182;2023-11-21T03:09:13;96795.13;;;9.20;100.00
31771;BME280;18343;50.152;8.182;2023-11-21T03:11:59;96800.69;;;9.19;100.00
31771;BME280;18343;50.152;8.182;2023-11-21T03:14:45;96800.25;;;9.15;100.00
31771;BME280;18343;50.152;8.182;2023-11-21T03:17:30;96799.22;;;9.16;100.00
31771;BME280;18343;50.152;8.182;2023-11-21T03:20:15;96799.84;;;9.18;100.00
31771;BME280;18343;50.152;8.182;2023-11-21T03:23:00;96802.34;;;9.20;100.00
31771;BME280;18343;50.152;8.182;2023-11-21T03:25:44;96812.25;;;9.19;100.00
31771;BME280;18343;50.152;8.182;2023-11-21T03:28:29;96816.38;;;9.22;100.00
31771;BME280;18343;50.152;8.182;2023-11-21T03:31:15;96814.53;;;9.22;100.00
31771;BME280;18343;50.152;8.182;2023-11-21T03:34:00;96816.78;;;9.19;100.00
31771;BME280;18343;50.152;8.182;2023-11-21T03:36:44;96820.69;;;9.16;100.00
31771;BME280;18343;50.152;8.182;2023-11-21T03:39:29;96820.47;;;9.18;100.00
31771;BME280;18343;50.152;8.182;2023-11-21T03:42:14;96818.44;;;9.20;100.00
31771;BME280;18343;50.152;8.182;2023-11-21T03:44:59;96825.44;;;9.21;100.00
31771;BME280;18343;50.152;8.182;2023-11-21T03:47:45;96824.22;;;9.23;100.00
31771;BME280;18343;50.152;8.182;2023-11-21T03:50:29;96832.69;;;9.20;100.00
31771;BME280;18343;50.152;8.182;2023-11-21T03:53:14;96832.88;;;9.19;100.00
31771;BME280;18343;50.152;8.182;2023-11-21T03:56:02;96830.19;;;9.19;100.00
31771;BME280;18343;50.152;8.182;2023-11-21T03:58:47;96830.81;;;9.21;100.00
31771;BME280;18343;50.152;8.182;2023-11-21T04:01:32;96832.88;;;9.19;100.00
31771;BME280;18343;50.152;8.182;2023-11-21T04:04:18;96835.75;;;9.17;100.00
31771;BME280;18343;50.152;8.182;2023-11-21T04:07:03;96834.91;;;9.16;100.00
31771;BME280;18343;50.152;8.182;2023-11-21T04:09:48;96833.25;;;9.15;100.00
31771;BME280;18343;50.152;8.182;2023-11-21T04:12:32;96841.13;;;9.17;100.00
31771;BME280;18343;50.152;8.182;2023-11-21T04:15:17;96847.50;;;9.16;100.00
31771;BME280;18343;50.152;8.182;2023-11-21T04:18:03;96844.81;;;9.16;100.00
31771;BME280;18343;50.152;8.182;2023-11-21T04:20:50;96855.75;;;9.14;100.00
31771;BME280;18343;50.152;8.182;2023-11-21T04:23:35;96858.44;;;9.14;100.00
31771;BME280;18343;50.152;8.182;2023-11-21T04:26:20;96851.22;;;9.15;100.00
31771;BME280;18343;50.152;8.182;2023-11-21T04:29:04;96854.72;;;9.15;100.00
31771;BME280;18343;50.152;8.182;2023-11-21T04:31:49;96854.28;;;9.12;100.00
31771;BME280;18343;50.152;8.182;2023-11-21T04:34:33;96860.47;;;9.12;100.00
31771;BME280;18343;50.152;8.182;2023-11-21T04:37:20;96868.34;;;9.14;100.00
31771;BME280;18343;50.152;8.182;2023-11-21T04:40:07;96872.22;;;9.11;100.00
31771;BME280;18343;50.152;8.182;2023-11-21T04:42:52;96875.56;;;9.13;100.00
31771;BME280;18343;50.152;8.182;2023-11-21T04:45:36;96879.06;;;9.14;100.00
31771;BME280;18343;50.152;8.182;2023-11-21T04:48:21;96888.13;;;9.13;100.00
31771;BME280;18343;50.152;8.182;2023-11-21T04:51:06;96885.25;;;9.14;100.00
31771;BME280;18343;50.152;8.182;2023-11-21T04:53:52;96888.75;;;9.15;100.00
31771;BME280;18343;50.152;8.182;2023-11-21T04:56:36;96888.56;;;9.16;100.00
31771;BME280;18343;50.152;8.182;2023-11-21T04:59:23;96902.81;;;9.17;100.00
31771;BME280;18343;50.152;8.182;2023-11-21T05:02:08;96901.34;;;9.14;100.00
31771;BME280;18343;50.152;8.182;2023-11-21T05:04:53;96902.19;;;9.15;100.00
31771;BME280;18343;50.152;8.182;2023-11-21T05:07:39;96904.03;;;9.14;100.00
31771;BME280;18343;50.152;8.182;2023-11-21T05:10:25;96910.41;;;9.13;100.00
31771;BME280;18343;50.152;8.182;2023-11-21T05:13:10;96910.81;;;9.10;100.00
31771;BME280;18343;50.152;8.182;2023-11-21T05:15:56;96921.94;;;9.07;100.00
31771;BME280;18343;50.152;8.182;2023-11-21T05:18:42;96920.66;;;9.03;100.00
31771;BME280;18343;50.152;8.182;2023-11-21T05:21:30;96919.44;;;9.06;100.00
31771;BME280;18343;50.152;8.182;2023-11-21T05:24:17;96924.59;;;9.01;100.00
31771;BME280;18343;50.152;8.182;2023-11-21T05:27:04;96920.06;;;9.01;100.00
31771;BME280;18343;50.152;8.182;2023-11-21T05:29:50;96924.38;;;9.02;100.00
31771;BME280;18343;50.152;8.182;2023-11-21T05:32:35;96934.91;;;9.04;100.00
31771;BME280;18343;50.152;8.182;2023-11-21T05:35:21;96943.38;;;9.07;100.00
31771;BME280;18343;50.152;8.182;2023-11-21T05:38:07;96945.22;;;9.07;100.00
31771;BME280;18343;50.152;8.182;2023-11-21T05:40:52;96952.44;;;9.06;100.00
31771;BME280;18343;50.152;8.182;2023-11-21T05:43:47;96947.91;;;9.07;100.00
31771;BME280;18343;50.152;8.182;2023-11-21T05:46:34;96954.56;;;9.11;100.00
31771;BME280;18343;50.152;8.182;2023-11-21T05:49:19;96959.72;;;9.12;100.00
31771;BME280;18343;50.152;8.182;2023-11-21T05:52:05;96964.91;;;9.14;100.00
31771;BME280;18343;50.152;8.182;2023-11-21T05:54:50;96959.53;;;9.14;100.00
31771;BME280;18343;50.152;8.182;2023-11-21T05:57:35;96959.91;;;9.11;100.00
31771;BME280;18343;50.152;8.182;2023-11-21T06:00:22;96956.22;;;9.12;100.00
31771;BME280;18343;50.152;8.182;2023-11-21T06:03:08;96960.75;;;9.11;100.00
31771;BME280;18343;50.152;8.182;2023-11-21T06:09:35;96976.38;;;9.01;100.00
31771;BME280;18343;50.152;8.182;2023-11-21T06:12:22;96982.56;;;9.02;100.00
31771;BME280;18343;50.152;8.182;2023-11-21T06:15:09;96985.66;;;9.05;100.00
31771;BME280;18343;50.152;8.182;2023-11-21T06:17:57;96999.50;;;9.09;100.00
31771;BME280;18343;50.152;8.182;2023-11-21T06:20:42;96994.72;;;9.04;100.00
31771;BME280;18343;50.152;8.182;2023-11-21T06:23:27;96998.22;;;8.98;100.00
31771;BME280;18343;50.152;8.182;2023-11-21T06:26:13;96996.75;;;8.96;100.00
31771;BME280;18343;50.152;8.182;2023-11-21T06:29:00;96999.22;;;8.97;100.00
31771;BME280;18343;50.152;8.182;2023-11-21T06:31:46;97006.06;;;9.00;100.00
31771;BME280;18343;50.152;8.182;2023-11-21T06:34:34;97005.44;;;8.98;100.00
31771;BME280;18343;50.152;8.182;2023-11-21T06:37:38;97009.38;;;9.02;100.00
31771;BME280;18343;50.152;8.182;2023-11-21T06:40:24;97012.66;;;9.04;100.00
31771;BME280;18343;50.152;8.182;2023-11-21T06:43:10;97021.50;;;8.98;100.00
31771;BME280;18343;50.152;8.182;2023-11-21T06:45:56;97021.72;;;8.96;100.00
31771;BME280;18343;50.152;8.182;2023-11-21T06:48:43;97032.88;;;9.00;100.00
31771;BME280;18343;50.152;8.182;2023-11-21T06:51:29;97040.50;;;9.03;100.00
31771;BME280;18343;50.152;8.182;2023-11-21T06:54:14;97045.28;;;9.01;100.00
31771;BME280;18343;50.152;8.182;2023-11-21T06:56:59;97046.94;;;9.02;100.00
31771;BME280;18343;50.152;8.182;2023-11-21T06:59:46;97051.69;;;9.06;100.00
31771;BME280;18343;50.152;8.182;2023-11-21T07:02:33;97048.97;;;9.00;100.00
31771;BME280;18343;50.152;8.182;2023-11-21T07:05:18;97062.19;;;9.01;100.00
31771;BME280;18343;50.152;8.182;2023-11-21T07:08:07;97066.91;;;8.99;100.00
31771;BME280;18343;50.152;8.182;2023-11-21T07:10:58;97067.94;;;8.98;100.00
31771;BME280;18343;50.152;8.182;2023-11-21T07:13:44;97068.78;;;8.99;100.00
31771;BME280;18343;50.152;8.182;2023-11-21T07:16:29;97071.81;;;8.96;100.00
31771;BME280;18343;50.152;8.182;2023-11-21T07:19:15;97086.19;;;8.88;100.00
31771;BME280;18343;50.152;8.182;2023-11-21T07:22:01;97078.97;;;8.89;100.00
31771;BME280;18343;50.152;8.182;2023-11-21T07:24:48;97091.16;;;8.91;100.00
31771;BME280;18343;50.152;8.182;2023-11-21T07:27:33;97088.28;;;8.93;100.00
31771;BME280;18343;50.152;8.182;2023-11-21T07:30:19;97096.53;;;8.91;100.00
31771;BME280;18343;50.152;8.182;2023-11-21T07:33:07;97101.50;;;8.94;100.00
31771;BME280;18343;50.152;8.182;2023-11-21T07:35:52;97107.63;;;8.88;100.00
31771;BME280;18343;50.152;8.182;2023-11-21T07:38:39;97106.63;;;8.89;100.00
31771;BME280;18343;50.152;8.182;2023-11-21T07:41:27;97116.13;;;8.92;100.00
31771;BME280;18343;50.152;8.182;2023-11-21T07:44:14;97120.28;;;8.94;100.00
31771;BME280;18343;50.152;8.182;2023-11-21T07:47:00;97115.19;;;8.99;100.00
31771;BME280;18343;50.152;8.182;2023-11-21T07:49:46;97125.31;;;9.04;100.00
31771;BME280;18343;50.152;8.182;2023-11-21T07:52:32;97129.03;;;9.03;100.00
31771;BME280;18343;50.152;8.182;2023-11-21T07:55:18;97122.03;;;9.02;100.00
31771;BME280;18343;50.152;8.182;2023-11-21T07:58:07;97129.25;;;9.01;100.00
31771;BME280;18343;50.152;8.182;2023-11-21T08:00:54;97132.75;;;9.02;100.00
31771;BME280;18343;50.152;8.182;2023-11-21T08:03:39;97143.06;;;9.05;100.00
31771;BME280;18343;50.152;8.182;2023-11-21T08:06:25;97140.00;;;9.08;100.00
31771;BME280;18343;50.152;8.182;2023-11-21T08:09:11;97144.38;;;9.09;100.00
31771;BME280;18343;50.152;8.182;2023-11-21T08:11:59;97147.69;;;9.11;100.00
31771;BME280;18343;50.152;8.182;2023-11-21T08:14:48;97154.72;;;9.12;100.00
31771;BME280;18343;50.152;8.182;2023-11-21T08:20:56;97147.69;;;9.11;100.00
31771;BME280;18343;50.152;8.182;2023-11-21T08:23:41;97159.88;;;9.13;100.00
31771;BME280;18343;50.152;8.182;2023-11-21T08:26:26;97163.41;;;9.14;100.00
31771;BME280;18343;50.152;8.182;2023-11-21T08:29:11;97164.88;;;9.16;100.00
31771;BME280;18343;50.152;8.182;2023-11-21T08:31:58;97165.06;;;9.15;100.00
31771;BME280;18343;50.152;8.182;2023-11-21T08:34:44;97172.94;;;9.16;100.00
31771;BME280;18343;50.152;8.182;2023-11-21T08:37:29;97180.31;;;9.14;100.00
31771;BME280;18343;50.152;8.182;2023-11-21T08:43:38;97191.06;;;9.14;100.00
31771;BME280;18343;50.152;8.182;2023-11-21T08:46:23;97185.69;;;9.14;100.00
31771;BME280;18343;50.152;8.182;2023-11-21T08:49:10;97194.38;;;9.16;100.00
31771;BME280;18343;50.152;8.182;2023-11-21T08:51:55;97193.00;;;9.21;100.00
31771;BME280;18343;50.152;8.182;2023-11-21T08:54:40;97185.84;;;9.28;100.00
31771;BME280;18343;50.152;8.182;2023-11-21T08:57:24;97194.72;;;9.28;100.00
31771;BME280;18343;50.152;8.182;2023-11-21T09:00:11;97185.66;;;9.29;100.00
31771;BME280;18343;50.152;8.182;2023-11-21T09:02:59;97194.13;;;9.33;100.00
31771;BME280;18343;50.152;8.182;2023-11-21T09:05:50;97199.13;;;9.36;100.00
31771;BME280;18343;50.152;8.182;2023-11-21T09:08:35;97196.81;;;9.33;100.00
31771;BME280;18343;50.152;8.182;2023-11-21T09:11:21;97206.59;;;9.40;100.00
31771;BME280;18343;50.152;8.182;2023-11-21T09:14:10;97215.31;;;9.42;100.00
31771;BME280;18343;50.152;8.182;2023-11-21T09:16:55;97210.56;;;9.44;100.00
31771;BME280;18343;50.152;8.182;2023-11-21T09:19:41;97206.03;;;9.45;100.00
31771;BME280;18343;50.152;8.182;2023-11-21T09:22:27;97215.94;;;9.44;100.00
31771;BME280;18343;50.152;8.182;2023-11-21T09:25:13;97225.72;;;9.52;100.00
31771;BME280;18343;50.152;8.182;2023-11-21T09:27:59;97223.91;;;9.59;100.00
31771;BME280;18343;50.152;8.182;2023-11-21T09:30:44;97222.66;;;9.55;100.00
31771;BME280;18343;50.152;8.182;2023-11-21T09:33:30;97226.00;;;9.57;100.00
31771;BME280;18343;50.152;8.182;2023-11-21T09:36:15;97224.75;;;9.60;100.00
31771;BME280;18343;50.152;8.182;2023-11-21T09:39:02;97220.22;;;9.60;100.00
31771;BME280;18343;50.152;8.182;2023-11-21T09:41:50;97222.41;;;9.50;100.00
31771;BME280;18343;50.152;8.182;2023-11-21T09:44:51;97232.50;;;9.48;100.00
31771;BME280;18343;50.152;8.182;2023-11-21T09:47:53;97232.50;;;9.48;100.00
31771;BME280;18343;50.152;8.182;2023-11-21T09:50:40;97243.03;;;9.49;100.00
31771;BME280;18343;50.152;8.182;2023-11-21T09:53:28;97234.63;;;9.53;100.00
31771;BME280;18343;50.152;8.182;2023-11-21T09:56:19;97243.97;;;9.57;100.00
31771;BME280;18343;50.152;8.182;2023-11-21T09:59:07;97236.09;;;9.55;100.00
31771;BME280;18343;50.152;8.182;2023-11-21T10:01:54;97247.22;;;9.52;100.00
31771;BME280;18343;50.152;8.182;2023-11-21T10:04:40;97248.22;;;9.51;100.00
31771;BME280;18343;50.152;8.182;2023-11-21T10:07:30;97249.31;;;9.57;100.00
31771;BME280;18343;50.152;8.182;2023-11-21T10:10:19;97249.56;;;9.62;100.00
31771;BME280;18343;50.152;8.182;2023-11-21T10:13:07;97248.59;;;9.69;100.00
31771;BME280;18343;50.152;8.182;2023-11-21T10:15:57;97253.72;;;9.64;100.00
31771;BME280;18343;50.152;8.182;2023-11-21T10:18:43;97262.22;;;9.68;100.00
31771;BME280;18343;50.152;8.182;2023-11-21T10:21:28;97262.94;;;9.76;100.00
31771;BME280;18343;50.152;8.182;2023-11-21T10:24:14;97266.25;;;9.78;100.00
31771;BME280;18343;50.152;8.182;2023-11-21T10:27:04;97266.91;;;9.80;100.00
31771;BME280;18343;50.152;8.182;2023-11-21T10:29:53;97272.56;;;9.92;100.00
31771;BME280;18343;50.152;8.182;2023-11-21T10:32:39;97274.56;;;10.05;100.00
31771;BME280;18343;50.152;8.182;2023-11-21T10:35:24;97286.25;;;9.97;100.00
31771;BME280;18343;50.152;8.182;2023-11-21T10:38:10;97279.38;;;10.09;100.00
31771;BME280;18343;50.152;8.182;2023-11-21T10:40:55;97284.69;;;10.24;100.00
31771;BME280;18343;50.152;8.182;2023-11-21T10:43:42;97279.44;;;10.44;100.00
31771;BME280;18343;50.152;8.182;2023-11-21T10:46:31;97272.72;;;10.55;100.00
31771;BME280;18343;50.152;8.182;2023-11-21T10:49:20;97268.00;;;10.63;100.00
31771;BME280;18343;50.152;8.182;2023-11-21T10:52:05;97272.16;;;10.66;100.00
31771;BME280;18343;50.152;8.182;2023-11-21T10:54:52;97274.63;;;10.61;100.00
31771;BME280;18343;50.152;8.182;2023-11-21T10:57:38;97270.25;;;10.60;100.00
31771;BME280;18343;50.152;8.182;2023-11-21T11:00:23;97278.72;;;10.57;100.00
31771;BME280;18343;50.152;8.182;2023-11-21T11:03:10;97275.41;;;10.55;100.00
31771;BME280;18343;50.152;8.182;2023-11-21T11:05:55;97277.06;;;10.56;100.00
31771;BME280;18343;50.152;8.182;2023-11-21T11:08:40;97272.75;;;10.61;100.00
31771;BME280;18343;50.152;8.182;2023-11-21T11:11:25;97279.06;;;10.47;100.00
31771;BME280;18343;50.152;8.182;2023-11-21T11:14:11;97272.06;;;10.52;100.00
31771;BME280;18343;50.152;8.182;2023-11-21T11:16:56;97273.16;;;10.58;100.00
31771;BME280;18343;50.152;8.182;2023-11-21T11:19:43;97268.84;;;10.64;100.00
31771;BME280;18343;50.152;8.182;2023-11-21T11:22:37;97273.81;;;10.67;100.00
31771;BME280;18343;50.152;8.182;2023-11-21T11:25:47;97274.25;;;10.42;100.00
31771;BME280;18343;50.152;8.182;2023-11-21T11:28:47;97277.41;;;10.46;100.00
31771;BME280;18343;50.152;8.182;2023-11-21T11:31:42;97281.16;;;10.51;100.00
31771;BME280;18343;50.152;8.182;2023-11-21T11:34:35;97284.28;;;10.55;100.00
31771;BME280;18343;50.152;8.182;2023-11-21T11:37:21;97287.19;;;10.54;100.00
31771;BME280;18343;50.152;8.182;2023-11-21T11:40:08;97290.50;;;10.56;100.00
31771;BME280;18343;50.152;8.182;2023-11-21T11:43:00;97290.25;;;10.50;100.00
31771;BME280;18343;50.152;8.182;2023-11-21T11:45:45;97287.38;;;10.52;100.00
31771;BME280;18343;50.152;8.182;2023-11-21T11:48:30;97280.31;;;10.51;100.00
31771;BME280;18343;50.152;8.182;2023-11-21T11:51:19;97292.75;;;10.52;100.00
31771;BME280;18343;50.152;8.182;2023-11-21T11:54:08;97290.69;;;10.54;100.00
31771;BME280;18343;50.152;8.182;2023-11-21T11:56:53;97284.50;;;10.54;100.00
31771;BME280;18343;50.152;8.182;2023-11-21T12:00:07;97285.91;;;10.49;100.00
31771;BME280;18343;50.152;8.182;2023-11-21T12:02:53;97285.31;;;10.54;100.00
31771;BME280;18343;50.152;8.182;2023-11-21T12:05:38;97288.16;;;10.46;100.00
31771;BME280;18343;50.152;8.182;2023-11-21T12:08:29;97284.88;;;10.50;100.00
31771;BME280;18343;50.152;8.182;2023-11-21T12:11:17;97293.59;;;10.52;100.00
31771;BME280;18343;50.152;8.182;2023-11-21T12:14:02;97295.88;;;10.56;100.00
31771;BME280;18343;50.152;8.182;2023-11-21T12:16:47;97302.91;;;10.57;100.00
31771;BME280;18343;50.152;8.182;2023-11-21T12:19:32;97302.34;;;10.61;100.00
31771;BME280;18343;50.152;8.182;2023-11-21T12:22:17;97304.44;;;10.66;100.00
31771;BME280;18343;50.152;8.182;2023-11-21T12:25:02;97312.91;;;10.69;100.00
31771;BME280;18343;50.152;8.182;2023-11-21T12:27:50;97316.88;;;10.73;100.00
31771;BME280;18343;50.152;8.182;2023-11-21T12:30:36;97322.31;;;10.52;100.00
31771;BME280;18343;50.152;8.182;2023-11-21T12:33:22;97324.81;;;10.54;100.00
31771;BME280;18343;50.152;8.182;2023-11-21T12:36:07;97322.38;;;10.59;100.00
31771;BME280;18343;50.152;8.182;2023-11-21T12:38:54;97327.94;;;10.57;100.00
31771;BME280;18343;50.152;8.182;2023-11-21T12:41:38;97326.47;;;10.55;100.00
31771;BME280;18343;50.152;8.182;2023-11-21T12:44:24;97332.25;;;10.51;100.00
31771;BME280;18343;50.152;8.182;2023-11-21T12:47:09;97339.88;;;10.48;100.00
31771;BME280;18343;50.152;8.182;2023-11-21T12:49:53;97332.00;;;10.46;100.00
31771;BME280;18343;50.152;8.182;2023-11-21T12:52:38;97332.00;;;10.46;100.00
31771;BME280;18343;50.152;8.182;2023-11-21T12:55:30;97335.50;;;10.47;100.00
31771;BME280;18343;50.152;8.182;2023-11-21T12:58:14;97333.66;;;10.47;100.00
31771;BME280;18343;50.152;8.182;2023-11-21T13:01:01;97330.97;;;10.47;100.00
31771;BME280;18343;50.152;8.182;2023-11-21T13:03:50;97332.47;;;10.29;100.00
31771;BME280;18343;50.152;8.182;2023-11-21T13:06:38;97334.25;;;10.22;100.00
31771;BME280;18343;50.152;8.182;2023-11-21T13:09:23;97335.59;;;10.32;100.00
31771;BME280;18343;50.152;8.182;2023-11-21T13:12:08;97348.03;;;10.33;100.00
31771;BME280;18343;50.152;8.182;2023-11-21T13:14:56;97346.81;;;10.36;100.00
31771;BME280;18343;50.152;8.182;2023-11-21T13:17:46;97351.84;;;10.45;100.00
31771;BME280;18343;50.152;8.182;2023-11-21T13:20:31;97352.09;;;10.50;100.00
31771;BME280;18343;50.152;8.182;2023-11-21T13:23:15;97365.09;;;10.47;100.00
31771;BME280;18343;50.152;8.182;2023-11-21T13:26:00;97359.97;;;10.52;100.00
31771;BME280;18343;50.152;8.182;2023-11-21T13:28:45;97364.13;;;10.55;100.00
31771;BME280;18343;50.152;8.182;2023-11-21T13:31:30;97364.50;;;10.51;100.00
31771;BME280;18343;50.152;8.182;2023-11-21T13:34:16;97368.66;;;10.54;100.00
31771;BME280;18343;50.152;8.182;2023-11-21T13:37:03;97372.97;;;10.48;100.00
31771;BME280;18343;50.152;8.182;2023-11-21T13:39:48;97370.84;;;10.44;100.00
31771;BME280;18343;50.152;8.182;2023-11-21T13:42:33;97378.06;;;10.43;100.00
31771;BME280;18343;50.152;8.182;2023-11-21T13:45:18;97384.09;;;10.45;100.00
31771;BME280;18343;50.152;8.182;2023-11-21T13:48:02;97381.31;;;10.17;100.00
31771;BME280;18343;50.152;8.182;2023-11-21T13:50:48;97389.22;;;10.19;100.00
31771;BME280;18343;50.152;8.182;2023-11-21T13:53:33;97385.50;;;10.20;100.00
31771;BME280;18343;50.152;8.182;2023-11-21T13:56:18;97395.09;;;10.08;100.00
31771;BME280;18343;50.152;8.182;2023-11-21T13:59:03;97393.22;;;10.08;100.00
31771;BME280;18343;50.152;8.182;2023-11-21T14:01:48;97394.09;;;10.15;100.00
31771;BME280;18343;50.152;8.182;2023-11-21T14:04:33;97391.59;;;10.14;100.00
31771;BME280;18343;50.152;8.182;2023-11-21T14:07:19;97393.72;;;10.18;100.00
31771;BME280;18343;50.152;8.182;2023-11-21T14:10:05;97387.06;;;10.14;100.00
31771;BME280;18343;50.152;8.182;2023-11-21T14:12:50;97389.88;;;10.21;100.00
31771;BME280;18343;50.152;8.182;2023-11-21T14:15:35;97393.66;;;10.27;100.00
31771;BME280;18343;50.152;8.182;2023-11-21T14:18:20;97390.78;;;10.28;100.00
31771;BME280;18343;50.152;8.182;2023-11-21T14:21:06;97393.91;;;10.32;100.00
31771;BME280;18343;50.152;8.182;2023-11-21T14:23:52;97384.00;;;10.32;100.00
31771;BME280;18343;50.152;8.182;2023-11-21T14:26:37;97392.06;;;10.32;100.00
31771;BME280;18343;50.152;8.182;2023-11-21T14:29:22;97394.75;;;10.32;100.00
31771;BME280;18343;50.152;8.182;2023-11-21T14:32:07;97386.41;;;10.27;100.00
31771;BME280;18343;50.152;8.182;2023-11-21T14:34:51;97397.53;;;10.24;100.00
31771;BME280;18343;50.152;8.182;2023-11-21T14:37:36;97396.72;;;10.24;100.00
31771;BME280;18343;50.152;8.182;2023-11-21T14:40:22;97404.13;;;10.22;100.00
31771;BME280;18343;50.152;8.182;2023-11-21T14:43:07;97403.94;;;10.23;100.00
31771;BME280;18343;50.152;8.182;2023-11-21T14:45:51;97416.25;;;10.17;100.00
31771;BME280;18343;50.152;8.182;2023-11-21T14:48:36;97410.56;;;10.06;100.00